createdAt,value
2018-07-16T04:14:07.262Z,99.90
2018-07-16T04:16:36.280Z,99.90
2018-07-16T04:19:05.333Z,99.90
2018-07-16T04:21:34.419Z,99.90
2018-07-16T04:24:03.437Z,99.90
2018-07-16T04:26:32.500Z,99.90
2018-07-16T04:31:30.244Z,99.90
2018-07-16T04:33:59.259Z,99.90
2018-07-16T04:36:28.315Z,99.90
2018-07-16T04:38:57.360Z,99.90
2018-07-16T04:41:26.412Z,99.90
2018-07-16T04:43:55.438Z,99.90
2018-07-16T04:46:24.504Z,99.90
2018-07-16T04:48:53.559Z,99.90
2018-07-16T04:51:22.612Z,99.90
2018-07-16T04:53:51.673Z,99.90
2018-07-16T04:56:20.830Z,99.90
2018-07-16T04:58:49.839Z,99.90
2018-07-16T05:01:18.944Z,99.90
2018-07-16T05:03:47.986Z,99.90
2018-07-16T05:06:17.115Z,99.90
2018-07-16T05:08:46.162Z,99.90
2018-07-16T05:11:15.184Z,99.90
2018-07-16T05:13:44.256Z,99.90
2018-07-16T05:16:13.285Z,99.90
2018-07-16T05:21:10.982Z,99.90
2018-07-16T05:23:40.036Z,99.90
2018-07-16T05:26:09.095Z,99.90
2018-07-16T05:28:38.171Z,99.90
2018-07-16T05:31:07.228Z,99.90
2018-07-16T05:33:36.253Z,99.90
2018-07-16T05:36:05.372Z,99.90
2018-07-16T05:38:34.438Z,99.90
2018-07-16T05:41:03.576Z,99.90
2018-07-16T05:43:32.669Z,99.90
2018-07-16T05:46:01.804Z,99.90
2018-07-16T05:48:31.074Z,99.90
2018-07-16T05:51:00.126Z,99.90
2018-07-16T05:53:29.149Z,99.90
2018-07-16T05:55:58.257Z,99.90
2018-07-16T05:58:27.440Z,99.90
2018-07-16T06:00:56.484Z,99.90
2018-07-16T06:03:26.266Z,99.90
2018-07-16T06:05:55.316Z,99.90
2018-07-16T06:08:24.398Z,99.90
2018-07-16T06:10:53.513Z,99.90
2018-07-16T06:13:22.600Z,99.90
2018-07-16T06:15:51.729Z,99.90
2018-07-16T06:18:20.752Z,99.90
2018-07-16T06:20:49.789Z,99.90
2018-07-16T06:23:18.973Z,99.90
2018-07-16T06:25:48.388Z,99.90
2018-07-16T06:28:17.475Z,99.90
2018-07-16T06:30:46.542Z,99.90
2018-07-16T06:33:15.651Z,99.90
2018-07-16T06:35:44.757Z,99.90
2018-07-16T06:43:11.254Z,99.90
2018-07-16T06:45:40.351Z,99.90
2018-07-16T06:48:09.466Z,99.90
2018-07-16T06:50:38.837Z,99.90
2018-07-16T06:53:08.114Z,99.90
2018-07-16T06:55:37.165Z,99.90
2018-07-16T06:58:06.628Z,99.90
2018-07-16T07:00:35.773Z,99.90
2018-07-16T07:03:04.959Z,99.90
2018-07-16T07:05:34.168Z,99.90
2018-07-16T07:08:03.536Z,99.90
2018-07-16T07:10:32.789Z,99.90
2018-07-16T07:13:02.010Z,99.90
2018-07-16T07:15:31.092Z,99.90
2018-07-16T07:18:00.421Z,99.90
2018-07-16T07:20:29.651Z,99.90
2018-07-16T07:22:58.863Z,99.90
2018-07-16T07:25:28.274Z,99.90
2018-07-16T07:27:57.324Z,99.90
2018-07-16T07:30:26.403Z,99.90
2018-07-16T07:32:55.880Z,99.90
2018-07-16T07:35:25.131Z,99.90
2018-07-16T07:37:54.299Z,99.90
2018-07-16T07:40:23.706Z,99.90
2018-07-16T07:42:53.048Z,99.90
2018-07-16T07:45:22.091Z,99.90
2018-07-16T07:50:20.006Z,99.90
2018-07-16T07:52:50.090Z,99.90
2018-07-16T07:55:19.607Z,99.90
2018-07-16T07:57:48.340Z,99.90
2018-07-16T08:00:17.356Z,99.90
2018-07-16T08:02:47.478Z,99.90
2018-07-16T08:05:16.870Z,99.90
2018-07-16T08:07:45.980Z,99.90
2018-07-16T08:10:15.039Z,99.90
2018-07-16T08:12:44.087Z,99.90
2018-07-16T08:15:13.213Z,99.90
2018-07-16T08:17:42.353Z,99.90
2018-07-16T08:20:11.537Z,99.90
2018-07-16T08:22:40.603Z,99.90
2018-07-16T08:25:09.697Z,99.90
2018-07-16T08:27:38.891Z,99.90
2018-07-16T08:30:08.034Z,99.90
2018-07-16T08:32:37.142Z,99.90
2018-07-16T08:35:06.308Z,99.90
2018-07-16T08:37:35.367Z,99.90
2018-07-16T08:40:04.852Z,99.90
2018-07-16T08:45:02.627Z,99.90
2018-07-16T08:47:31.666Z,99.90
2018-07-16T08:50:00.740Z,99.80
2018-07-16T08:52:29.763Z,98.50
2018-07-16T08:54:58.789Z,99.30
2018-07-16T08:57:27.825Z,99.90
2018-07-16T08:59:56.876Z,99.90
2018-07-16T09:02:25.895Z,99.90
2018-07-16T09:04:54.917Z,99.90
2018-07-16T09:07:23.972Z,99.90
2018-07-16T09:09:53.040Z,99.80
2018-07-16T09:12:22.165Z,97.40
2018-07-16T09:14:51.208Z,96.20
2018-07-16T09:17:20.300Z,97.20
2018-07-16T09:19:49.372Z,98.20
2018-07-16T09:27:15.716Z,97.90
2018-07-16T09:29:44.809Z,95.60
2018-07-16T09:32:13.863Z,96.40
2018-07-16T09:34:42.971Z,96.90
2018-07-16T09:37:12.317Z,96.80
2018-07-16T09:39:41.354Z,96.50
2018-07-16T09:42:10.452Z,96.70
2018-07-16T09:44:39.867Z,96.50
2018-07-16T09:47:08.948Z,95.60
2018-07-16T09:49:38.964Z,93.70
2018-07-16T09:52:08.168Z,93.90
2018-07-16T09:54:37.729Z,95.10
2018-07-16T09:59:35.500Z,95.00
2018-07-16T10:02:09.958Z,95.00
2018-07-16T10:04:39.021Z,94.80
2018-07-16T10:07:08.067Z,94.10
2018-07-16T10:09:37.120Z,94.60
2018-07-16T10:12:06.219Z,95.30
2018-07-16T10:17:04.112Z,92.50
2018-07-16T10:19:33.284Z,93.80
2018-07-16T10:22:02.296Z,94.30
2018-07-16T10:24:31.350Z,94.20
2018-07-16T10:27:00.435Z,93.10
2018-07-16T10:29:29.485Z,93.00
2018-07-16T10:31:58.669Z,91.70
2018-07-16T10:34:27.733Z,92.00
2018-07-16T10:36:56.790Z,91.50
2018-07-16T10:39:25.902Z,90.30
2018-07-16T10:41:54.970Z,89.60
2018-07-16T10:44:24.057Z,88.10
2018-07-16T10:49:21.976Z,85.00
2018-07-16T10:51:51.120Z,86.50
2018-07-16T10:54:20.168Z,85.00
2018-07-16T10:56:49.296Z,84.70
2018-07-16T10:59:18.472Z,86.80
2018-07-16T11:01:47.572Z,84.70
2018-07-16T11:04:16.614Z,85.90
2018-07-16T11:06:45.678Z,85.30
2018-07-16T11:09:14.705Z,82.90
2018-07-16T11:11:43.852Z,85.00
2018-07-16T11:14:12.876Z,88.90
2018-07-16T11:19:10.576Z,90.10
2018-07-16T11:21:39.586Z,90.50
2018-07-16T11:24:08.813Z,88.00
2018-07-16T11:26:37.872Z,87.30
2018-07-16T11:29:06.952Z,89.80
2018-07-16T11:31:36.016Z,88.30
2018-07-16T11:34:05.186Z,90.30
2018-07-16T11:36:34.238Z,90.40
2018-07-16T11:39:03.485Z,90.80
2018-07-16T11:41:32.511Z,89.00
2018-07-16T11:44:01.576Z,89.10
2018-07-16T11:46:30.636Z,91.40
2018-07-16T11:48:59.732Z,89.50
2018-07-16T11:51:28.780Z,88.00
2018-07-16T11:53:57.852Z,86.60
2018-07-16T11:56:26.955Z,85.70
2018-07-16T11:58:56.037Z,87.60
2018-07-16T12:01:25.079Z,87.40
2018-07-16T12:03:54.097Z,82.30
2018-07-16T12:06:23.170Z,82.90
2018-07-16T12:08:53.832Z,84.60
2018-07-16T12:11:23.145Z,86.10
2018-07-16T12:13:52.554Z,85.60
2018-07-16T12:16:21.613Z,84.90
2018-07-16T12:18:50.633Z,81.30
2018-07-16T12:21:19.706Z,80.50
2018-07-16T12:26:17.356Z,83.90
2018-07-16T12:28:46.360Z,84.10
2018-07-16T12:31:15.405Z,84.90
2018-07-16T12:33:44.423Z,85.30
2018-07-16T12:36:13.564Z,85.60
2018-07-16T12:38:42.592Z,87.30
2018-07-16T12:41:11.645Z,85.40
2018-07-16T12:43:40.736Z,81.70
2018-07-16T12:46:09.975Z,83.80
2018-07-16T12:48:38.992Z,86.00
2018-07-16T12:51:08.023Z,82.30
2018-07-16T12:53:37.067Z,80.40
2018-07-16T12:56:06.200Z,79.80
2018-07-16T12:58:35.236Z,83.20
2018-07-16T13:01:04.338Z,79.90
2018-07-16T13:03:33.376Z,80.50
2018-07-16T13:06:02.522Z,81.10
2018-07-16T13:08:31.576Z,81.00
2018-07-16T13:11:00.636Z,82.80
2018-07-16T13:13:29.726Z,83.20
2018-07-16T13:15:58.807Z,83.20
2018-07-16T13:18:27.832Z,83.40
2018-07-16T13:20:56.900Z,80.10
2018-07-16T13:23:25.976Z,81.30
2018-07-16T13:25:54.988Z,78.00
2018-07-16T13:28:24.032Z,80.30
2018-07-16T13:30:53.040Z,76.40
2018-07-16T13:33:22.143Z,79.30
2018-07-16T13:35:51.184Z,80.00
2018-07-16T13:38:20.420Z,81.40
2018-07-16T13:40:49.758Z,77.10
2018-07-16T13:43:18.970Z,78.60
2018-07-16T13:45:48.059Z,77.00
2018-07-16T13:48:17.486Z,79.70
2018-07-16T13:50:46.744Z,76.90
2018-07-16T13:53:16.007Z,78.30
2018-07-16T13:55:45.517Z,75.70
2018-07-16T13:58:14.830Z,78.30
2018-07-16T14:00:43.967Z,79.20
2018-07-16T14:03:13.278Z,79.70
2018-07-16T14:05:42.641Z,79.00
2018-07-16T14:08:11.815Z,79.80
2018-07-16T14:10:41.037Z,80.70
2018-07-16T14:13:10.289Z,81.50
2018-07-16T14:15:39.356Z,81.20
2018-07-16T14:18:08.492Z,80.80
2018-07-16T14:20:37.527Z,80.60
2018-07-16T14:23:06.593Z,78.10
2018-07-16T14:25:36.232Z,79.40
2018-07-16T14:28:05.393Z,80.70
2018-07-16T14:30:34.413Z,79.50
2018-07-16T14:35:33.159Z,77.80
2018-07-16T14:38:02.629Z,77.00
2018-07-16T14:40:31.755Z,76.70
2018-07-16T14:43:00.889Z,75.40
2018-07-16T14:45:29.973Z,73.20
2018-07-16T14:47:59.129Z,71.30
2018-07-16T14:50:28.240Z,70.40
2018-07-16T14:52:57.324Z,70.20
2018-07-16T14:55:26.357Z,71.20
2018-07-16T14:57:55.484Z,68.80
2018-07-16T15:00:24.509Z,67.50
2018-07-16T15:02:53.604Z,67.70
2018-07-16T15:05:22.982Z,70.10
2018-07-16T15:07:52.057Z,73.40
2018-07-16T15:10:21.104Z,76.60
2018-07-16T15:12:50.180Z,77.00
2018-07-16T15:15:19.207Z,77.70
2018-07-16T15:17:48.250Z,79.60
2018-07-16T15:20:18.358Z,79.20
2018-07-16T15:22:47.367Z,80.00
2018-07-16T15:25:16.548Z,81.00
2018-07-16T15:27:45.693Z,82.00
2018-07-16T15:30:14.794Z,83.30
2018-07-16T15:32:43.873Z,85.60
2018-07-16T15:35:12.978Z,83.70
2018-07-16T15:37:42.148Z,84.70
2018-07-16T15:40:11.208Z,84.70
2018-07-16T15:42:40.280Z,85.30
2018-07-16T15:45:09.316Z,87.70
2018-07-16T15:47:38.484Z,88.70
2018-07-16T15:50:07.544Z,89.60
2018-07-16T15:52:36.649Z,90.90
2018-07-16T15:55:05.866Z,87.60
2018-07-16T15:57:35.056Z,86.50
2018-07-16T16:00:04.501Z,83.80
2018-07-16T16:02:33.533Z,83.00
2018-07-16T16:05:02.604Z,84.80
2018-07-16T16:07:32.528Z,83.90
2018-07-16T16:10:03.284Z,84.50
2018-07-16T16:12:32.437Z,85.60
2018-07-16T16:15:01.503Z,84.60
2018-07-16T16:17:30.671Z,86.60
2018-07-16T16:19:59.737Z,87.90
2018-07-16T16:22:28.791Z,86.50
2018-07-16T16:24:57.895Z,87.20
2018-07-16T16:27:26.952Z,86.30
2018-07-16T16:29:55.997Z,87.50
2018-07-16T16:32:25.059Z,87.00
2018-07-16T16:34:54.123Z,87.40
2018-07-16T16:37:23.206Z,88.60
2018-07-16T16:39:52.297Z,86.80
2018-07-16T16:42:21.315Z,85.20
2018-07-16T16:44:50.465Z,86.20
2018-07-16T16:47:19.523Z,87.80
2018-07-16T16:49:48.624Z,87.30
2018-07-16T16:52:17.684Z,87.00
2018-07-16T16:54:46.857Z,88.60
2018-07-16T16:57:15.980Z,87.50
2018-07-16T16:59:45.065Z,87.70
2018-07-16T17:02:14.325Z,86.80
2018-07-16T17:04:43.538Z,85.30
2018-07-16T17:07:12.676Z,84.20
2018-07-16T17:09:41.894Z,86.00
2018-07-16T17:12:10.949Z,87.00
2018-07-16T17:14:39.991Z,87.80
2018-07-16T17:17:09.056Z,88.50
2018-07-16T17:19:38.112Z,89.30
2018-07-16T17:22:07.221Z,88.60
2018-07-16T17:24:36.304Z,89.60
2018-07-16T17:27:05.343Z,89.70
2018-07-16T17:29:34.518Z,90.40
2018-07-16T17:32:03.725Z,90.00
2018-07-16T17:34:32.799Z,90.20
2018-07-16T17:37:01.886Z,90.20
2018-07-16T17:39:31.115Z,90.10
2018-07-16T17:42:00.212Z,90.00
2018-07-16T17:44:29.310Z,89.80
2018-07-16T17:46:58.365Z,89.40
2018-07-16T17:49:27.428Z,90.10
2018-07-16T17:51:56.512Z,90.00
2018-07-16T17:54:25.570Z,90.70
2018-07-16T17:56:54.677Z,91.10
2018-07-16T18:01:53.868Z,90.90
2018-07-16T18:04:22.985Z,90.50
2018-07-16T18:06:52.027Z,91.00
2018-07-16T18:09:21.158Z,91.30
2018-07-16T18:16:47.966Z,91.50
2018-07-16T18:19:17.412Z,91.70
2018-07-16T18:21:46.501Z,92.10
2018-07-16T18:24:15.619Z,92.70
2018-07-16T18:26:44.692Z,93.20
2018-07-16T18:29:14.338Z,93.80
2018-07-16T18:34:12.061Z,94.00
2018-07-16T18:36:41.168Z,94.30
2018-07-16T18:39:10.804Z,94.70
2018-07-16T18:41:40.130Z,95.50
2018-07-16T18:44:09.234Z,95.70
2018-07-16T18:46:38.420Z,95.80
2018-07-16T18:49:07.654Z,95.80
2018-07-16T18:51:38.899Z,96.10
2018-07-16T18:54:08.999Z,96.20
2018-07-16T18:56:38.159Z,96.70
2018-07-16T18:59:07.240Z,97.00
2018-07-16T19:01:36.381Z,97.50
2018-07-16T19:04:05.601Z,97.80
2018-07-16T19:06:34.818Z,98.00
2018-07-16T19:09:04.753Z,98.20
2018-07-16T19:11:33.981Z,98.50
2018-07-16T19:16:33.610Z,98.80
2018-07-16T19:19:02.906Z,98.90
2018-07-16T19:21:32.617Z,99.80
2018-07-16T19:24:01.832Z,99.60
2018-07-16T19:26:31.224Z,99.90
2018-07-16T19:29:00.496Z,99.90
2018-07-16T19:31:29.802Z,99.90
2018-07-16T19:33:58.885Z,99.90
2018-07-16T19:36:28.055Z,99.90
2018-07-16T19:38:57.442Z,99.90
2018-07-16T19:41:26.524Z,99.90
2018-07-16T19:43:55.648Z,99.90
2018-07-16T19:46:24.767Z,99.90
2018-07-16T19:48:54.241Z,99.90
2018-07-16T19:51:23.474Z,99.90
2018-07-16T19:53:52.826Z,99.90
2018-07-16T19:56:22.543Z,99.90
2018-07-16T19:58:52.074Z,99.90
2018-07-16T20:01:21.233Z,99.90
2018-07-16T20:03:50.406Z,99.90
2018-07-16T20:06:19.544Z,99.90
2018-07-16T20:08:48.593Z,99.90
2018-07-16T20:11:17.755Z,99.90
2018-07-16T20:13:46.863Z,99.90
2018-07-16T20:16:16.120Z,99.90
2018-07-16T20:18:45.353Z,99.90
2018-07-16T20:21:14.394Z,99.90
2018-07-16T20:23:43.528Z,99.90
2018-07-16T20:26:12.682Z,99.90
2018-07-16T20:28:41.788Z,99.90
2018-07-16T20:31:10.906Z,99.90
2018-07-16T20:33:39.955Z,99.90
2018-07-16T20:38:37.853Z,99.90
2018-07-16T20:41:07.025Z,99.90
2018-07-16T20:43:36.059Z,99.90
2018-07-16T20:46:05.427Z,99.90
2018-07-16T20:48:34.477Z,99.90
2018-07-16T20:51:03.627Z,99.90
2018-07-16T20:53:32.667Z,99.90
2018-07-16T20:56:01.822Z,99.90
2018-07-16T20:58:30.919Z,99.90
2018-07-16T21:00:59.991Z,99.90
2018-07-16T21:03:36.576Z,99.90
2018-07-16T21:06:10.662Z,99.90
2018-07-16T21:08:39.773Z,99.90
2018-07-16T21:11:08.865Z,99.90
2018-07-16T21:13:37.908Z,99.90
2018-07-16T21:16:07.064Z,99.90
2018-07-16T21:18:36.164Z,99.90
2018-07-16T21:21:05.286Z,99.90
2018-07-16T21:23:34.381Z,99.90
2018-07-16T21:26:03.532Z,99.90
2018-07-16T21:28:32.564Z,99.90
2018-07-16T21:33:30.338Z,99.90
2018-07-16T21:35:59.367Z,99.90
2018-07-16T21:38:28.477Z,99.90
2018-07-16T21:40:57.559Z,99.90
2018-07-16T21:43:26.634Z,99.90
2018-07-16T21:45:55.750Z,99.90
2018-07-16T21:48:24.784Z,99.90
2018-07-16T21:50:53.917Z,99.90
2018-07-16T21:53:22.980Z,99.90
2018-07-16T21:55:52.329Z,99.90
2018-07-16T21:58:21.369Z,99.90
2018-07-16T22:00:50.549Z,99.90
2018-07-16T22:03:19.633Z,99.90
2018-07-16T22:05:48.711Z,99.90
2018-07-16T22:08:17.820Z,99.90
